Time;durP1;ratioP1;P1;durP2;ratioP2;P2;SDS_P1;SDS_P2;PMS_P1;PMS_P2;Temp;Humidity;BMP_temperature;BMP_pressure;BME280_temperature;BME280_humidity;BME280_pressure;Samples;Min_cycle;Max_cycle;Signal;HPM_P1;HPM_P2
2021/11/05 01:19:05;;;;;;;4.32;2.80;;;;;;;7.31;79.81;99804.03;1090574;46;20046;-78
2021/11/05 01:20:12;;;;;;;5.40;3.10;;;;;;;7.37;79.55;99800.00;1088418;54;20041;-80
2021/11/05 01:21:23;;;;;;;5.47;3.45;;;;;;;7.41;79.57;99802.28;1088046;54;20019;-78
2021/11/05 01:22:27;;;;;;;5.88;3.70;;;;;;;7.39;79.53;99798.91;1088136;54;20781;-80
2021/11/05 01:23:29;;;;;;;6.13;3.63;;;;;;;7.40;79.76;99800.59;1088356;54;20019;-81
2021/11/05 01:24:35;;;;;;;5.45;3.72;;;;;;;7.40;79.72;99805.06;1097595;39;20594;-80
2021/11/05 01:25:38;;;;;;;5.22;3.67;;;;;;;7.45;79.55;99808.19;1088434;54;20025;-79
2021/11/05 01:26:44;;;;;;;9.35;3.97;;;;;;;7.44;79.79;99804.66;1088399;54;20104;-80
2021/11/05 01:27:50;;;;;;;6.05;4.20;;;;;;;7.29;80.09;99804.13;1088305;54;20034;-80
2021/11/05 01:28:52;;;;;;;6.28;5.00;;;;;;;7.23;80.62;99809.97;1088413;54;20038;-79
2021/11/05 01:29:59;;;;;;;7.18;4.95;;;;;;;7.30;80.50;99805.81;1088318;54;20041;-82
2021/11/05 01:31:01;;;;;;;6.50;4.90;;;;;;;7.45;80.11;99808.19;1088456;54;20031;-81
2021/11/05 01:32:09;;;;;;;6.45;4.60;;;;;;;7.48;79.89;99819.41;1089337;39;20734;-80
2021/11/05 01:33:11;;;;;;;7.40;4.47;;;;;;;7.44;80.24;99811.81;1088294;54;20019;-80
2021/11/05 01:34:19;;;;;;;9.20;5.13;;;;;;;7.41;80.54;99814.72;1088368;54;20031;-80
2021/11/05 01:35:21;;;;;;;6.60;4.93;;;;;;;7.46;80.21;99809.88;1088256;54;20796;-81
2021/11/05 01:36:33;;;;;;;8.57;4.72;;;;;;;7.51;79.60;99815.63;1088334;54;20034;-81
2021/11/05 01:37:35;;;;;;;6.30;4.38;;;;;;;7.48;79.86;99806.09;1088317;54;20030;-79
2021/11/05 01:38:46;;;;;;;6.55;4.20;;;;;;;7.53;79.80;99813.69;1088233;54;20070;-79
2021/11/05 01:39:48;;;;;;;6.95;4.38;;;;;;;7.49;80.18;99815.75;1088252;54;20027;-79
2021/11/05 01:40:55;;;;;;;6.68;4.53;;;;;;;7.53;79.81;99815.47;1088322;54;20038;-80
2021/11/05 01:41:56;;;;;;;6.20;4.70;;;;;;;7.47;79.90;99809.72;1089152;46;20030;-79
2021/11/05 01:43:04;;;;;;;6.78;4.10;;;;;;;7.50;79.86;99811.28;1088233;54;20082;-81
2021/11/05 01:44:06;;;;;;;5.85;4.03;;;;;;;7.52;79.84;99812.00;1091694;39;20630;-78
2021/11/05 01:45:15;;;;;;;5.85;3.92;;;;;;;7.53;79.62;99813.69;1088309;54;20035;-79
2021/11/05 01:46:19;;;;;;;5.90;4.03;;;;;;;7.52;79.53;99813.78;1088318;54;20045;-79
2021/11/05 01:47:23;;;;;;;6.00;4.35;;;;;;;7.58;79.31;99808.81;1096341;39;20610;-78
2021/11/05 01:48:25;;;;;;;6.57;4.20;;;;;;;7.51;79.39;99809.47;1091251;39;20673;-79
2021/11/05 01:49:35;;;;;;;6.60;4.13;;;;;;;7.48;79.30;99807.91;1088062;54;20029;-78
2021/11/05 01:50:37;;;;;;;5.85;4.28;;;;;;;7.55;79.21;99818.88;1094256;39;20647;-80
2021/11/05 01:51:44;;;;;;;9.07;5.70;;;;;;;7.28;80.13;99810.41;1088203;54;20041;-81
2021/11/05 01:52:46;;;;;;;7.10;5.07;;;;;;;7.17;80.13;99821.16;1088198;54;20039;-79
2021/11/05 01:53:51;;;;;;;7.40;5.22;;;;;;;7.23;80.08;99809.13;1088320;54;20034;-81
2021/11/05 01:54:53;;;;;;;7.00;5.00;;;;;;;7.15;80.10;99815.09;1088237;54;20038;-81
2021/11/05 01:56:04;;;;;;;7.20;5.10;;;;;;;7.28;80.01;99810.41;1088298;54;20031;-80
2021/11/05 01:57:06;;;;;;;;;;;;;;;7.18;80.11;99822.81;1088356;54;20038;-80
2021/11/05 01:58:10;;;;;;;6.13;4.10;;;;;;;7.25;79.89;99821.34;1088174;54;19939;-79
2021/11/05 01:59:26;;;;;;;6.15;4.30;;;;;;;7.21;79.88;99822.56;1093240;39;20821;-81
2021/11/05 02:00:32;;;;;;;6.05;4.10;;;;;;;7.14;79.92;99816.06;1088235;54;20027;-78
2021/11/05 02:01:34;;;;;;;6.38;4.40;;;;;;;7.08;80.02;99821.91;1088152;54;20052;-80
2021/11/05 02:02:39;;;;;;;7.60;4.60;;;;;;;7.15;80.24;99829.22;1088111;54;20034;-78
2021/11/05 02:03:40;;;;;;;6.40;4.18;;;;;;;7.01;80.23;99826.88;1088182;54;20035;-81
2021/11/05 02:04:47;;;;;;;5.55;4.13;;;;;;;7.03;80.23;99831.09;1088127;54;20106;-81
2021/11/05 02:05:51;;;;;;;5.75;3.92;;;;;;;7.03;80.12;99831.09;1088616;39;20689;-80
2021/11/05 02:06:57;;;;;;;6.68;4.38;;;;;;;6.94;80.47;99833.69;1088143;54;20041;-81
2021/11/05 02:08:01;;;;;;;7.70;4.70;;;;;;;7.03;80.30;99825.78;1088077;54;20813;-79
2021/11/05 02:09:06;;;;;;;6.00;3.80;;;;;;;7.14;79.83;99840.81;1088224;54;20037;-81
2021/11/05 02:10:10;;;;;;;5.68;3.50;;;;;;;7.09;79.62;99834.22;1088045;54;20066;-81
2021/11/05 02:11:14;;;;;;;5.55;4.03;;;;;;;7.10;80.03;99836.75;1088180;54;20114;-81
2021/11/05 02:12:17;;;;;;;5.80;3.83;;;;;;;7.12;79.78;99839.28;1087908;54;20031;-79
2021/11/05 02:13:24;;;;;;;6.10;3.60;;;;;;;7.09;79.99;99840.38;1088109;54;20034;-81
2021/11/05 02:14:27;;;;;;;8.20;3.95;;;;;;;7.13;79.96;99833.81;1088174;54;20045;-78
2021/11/05 02:15:33;;;;;;;6.45;4.10;;;;;;;7.19;79.86;99835.13;1088160;54;20111;-81
2021/11/05 02:16:36;;;;;;;7.13;4.47;;;;;;;7.18;79.78;99838.75;1088125;54;20062;-81
2021/11/05 02:17:40;;;;;;;6.55;4.55;;;;;;;7.06;80.04;99839.78;1088088;54;20015;-80
2021/11/05 02:18:43;;;;;;;5.97;3.92;;;;;;;7.10;80.37;99852.72;1088061;54;20023;-78
2021/11/05 02:19:50;;;;;;;5.20;3.83;;;;;;;7.15;79.94;99844.34;1087540;54;20040;-79
2021/11/05 02:20:55;;;;;;;5.85;4.47;;;;;;;7.13;80.25;99852.44;1089090;39;20646;-79
2021/11/05 02:22:03;;;;;;;5.68;3.97;;;;;;;7.20;79.87;99847.44;1088073;54;20046;-81
2021/11/05 02:23:08;;;;;;;5.40;3.83;;;;;;;7.15;80.10;99841.69;1088128;54;20062;-79
2021/11/05 02:24:10;;;;;;;6.05;3.50;;;;;;;7.10;80.14;99846.53;1088084;54;20019;-81
2021/11/05 02:25:15;;;;;;;5.78;3.90;;;;;;;7.08;80.14;99853.81;1089459;39;20600;-80
2021/11/05 02:26:17;;;;;;;4.80;3.42;;;;;;;7.13;79.83;99848.94;1088040;54;20038;-81
2021/11/05 02:27:21;;;;;;;5.30;3.50;;;;;;;7.22;79.68;99855.31;1087945;54;20030;-79
2021/11/05 02:28:22;;;;;;;7.47;4.25;;;;;;;7.23;79.79;99846.34;1087949;54;20030;-81
2021/11/05 02:29:29;;;;;;;6.05;3.63;;;;;;;7.15;80.00;99850.50;1088190;54;20026;-80
2021/11/05 02:30:31;;;;;;;5.40;3.60;;;;;;;7.13;79.82;99855.09;1088097;54;20019;-79
2021/11/05 02:31:35;;;;;;;6.30;3.88;;;;;;;7.14;79.92;99853.28;1088025;54;20034;-80
2021/11/05 02:32:37;;;;;;;5.70;3.70;;;;;;;7.20;79.83;99852.78;1088070;54;20105;-78
2021/11/05 02:33:43;;;;;;;5.13;3.53;;;;;;;7.12;79.58;99849.91;1095716;39;20291;-78
2021/11/05 02:34:46;;;;;;;5.40;3.78;;;;;;;7.06;80.18;99856.56;1087954;54;20103;-79
2021/11/05 02:35:50;;;;;;;4.60;3.20;;;;;;;7.11;80.21;99853.53;1088101;54;20034;-78
2021/11/05 02:36:52;;;;;;;5.55;3.78;;;;;;;7.09;79.88;99860.78;1088637;46;20038;-79
2021/11/05 02:37:59;;;;;;;5.22;3.90;;;;;;;7.02;80.30;99857.81;1087869;54;20054;-78
2021/11/05 02:39:01;;;;;;;5.72;3.67;;;;;;;7.01;80.18;99864.94;1087777;54;20015;-78
2021/11/05 02:40:09;;;;;;;6.82;3.95;;;;;;;7.13;80.21;99855.09;1088703;46;20049;-80
2021/11/05 02:41:10;;;;;;;6.18;3.72;;;;;;;7.12;79.88;99865.88;1087945;54;20045;-80
2021/11/05 02:42:15;;;;;;;5.55;3.70;;;;;;;7.10;80.08;99857.16;1090455;39;20670;-79
2021/11/05 02:43:19;;;;;;;5.28;3.40;;;;;;;7.14;80.05;99866.59;1087903;54;20041;-79
2021/11/05 02:44:23;;;;;;;4.80;3.30;;;;;;;7.27;79.55;99864.59;1088027;54;20022;-80
2021/11/05 02:45:27;;;;;;;5.93;3.40;;;;;;;7.27;79.54;99869.94;1088085;54;20026;-80
2021/11/05 02:46:29;;;;;;;5.40;3.83;;;;;;;7.16;80.10;99862.00;1087969;54;20030;-80
2021/11/05 02:47:33;;;;;;;5.60;3.50;;;;;;;7.08;80.14;99864.44;1087788;54;20845;-78
2021/11/05 02:48:35;;;;;;;6.22;4.05;;;;;;;7.02;80.73;99866.63;1087825;54;20057;-80
2021/11/05 02:49:39;;;;;;;6.13;3.95;;;;;;;7.00;80.87;99868.56;1087883;54;20041;-79
2021/11/05 02:50:44;;;;;;;4.90;3.50;;;;;;;7.02;80.62;99877.25;1087830;54;20022;-78
2021/11/05 02:51:47;;;;;;;8.13;4.07;;;;;;;7.05;80.71;99876.16;1088033;54;20057;-80
2021/11/05 02:52:51;;;;;;;5.28;3.58;;;;;;;7.14;80.74;99877.22;1087837;54;20031;-80
2021/11/05 02:53:56;;;;;;;5.28;3.22;;;;;;;7.10;80.62;99878.44;1087983;54;20026;-79
2021/11/05 02:55:00;;;;;;;5.30;3.58;;;;;;;7.00;81.02;99875.69;1087873;54;20038;-79
2021/11/05 02:56:02;;;;;;;5.45;4.25;;;;;;;6.99;80.98;99880.16;1087962;54;20039;-78
2021/11/05 02:57:08;;;;;;;6.38;3.80;;;;;;;7.07;81.06;99874.22;1087972;54;20111;-78
2021/11/05 02:58:10;;;;;;;6.97;3.90;;;;;;;7.09;80.88;99880.25;1087876;54;20035;-79
2021/11/05 02:59:14;;;;;;;5.82;4.00;;;;;;;7.11;80.84;99882.78;1088028;54;20031;-79
2021/11/05 03:00:16;;;;;;;5.53;4.10;;;;;;;7.04;80.92;99882.44;1087992;54;20035;-80
2021/11/05 03:01:21;;;;;;;6.97;4.40;;;;;;;7.14;80.78;99883.38;1087998;54;20825;-80
2021/11/05 03:02:23;;;;;;;7.80;3.67;;;;;;;7.11;80.62;99878.31;1088313;54;20738;-80
2021/11/05 03:03:30;;;;;;;5.88;3.95;;;;;;;7.10;80.62;99883.75;1090202;39;20666;-80
2021/11/05 03:04:31;;;;;;;7.32;4.32;;;;;;;7.13;80.57;99878.19;1088302;54;20031;-80
2021/11/05 03:05:37;;;;;;;5.75;3.72;;;;;;;7.21;80.64;99878.38;1088234;54;20034;-80
2021/11/05 03:06:41;;;;;;;6.22;4.05;;;;;;;7.17;80.58;99874.31;1088435;54;20042;-80
2021/11/05 03:07:45;;;;;;;5.32;3.90;;;;;;;7.23;80.30;99884.44;1088250;54;20025;-79
2021/11/05 03:08:49;;;;;;;8.02;4.70;;;;;;;7.21;80.54;99888.19;1090001;46;20038;-80
2021/11/05 03:09:54;;;;;;;5.60;3.85;;;;;;;7.34;80.16;99892.38;1090296;46;20034;-79
2021/11/05 03:10:58;;;;;;;7.10;3.60;;;;;;;7.46;79.81;99889.66;1088471;54;20057;-80
2021/11/05 03:12:02;;;;;;;5.95;4.35;;;;;;;7.44;80.07;99886.28;1088471;54;20014;-80
2021/11/05 03:13:06;;;;;;;5.53;3.90;;;;;;;7.53;79.60;99887.31;1088404;54;20026;-79
2021/11/05 03:14:09;;;;;;;4.68;3.35;;;;;;;7.58;79.39;99893.09;1088490;54;20019;-79
2021/11/05 03:15:14;;;;;;;5.18;3.47;;;;;;;7.59;79.15;99884.97;1088561;54;20035;-79
2021/11/05 03:16:15;;;;;;;5.07;3.47;;;;;;;7.64;79.25;99890.78;1088666;47;20022;-80
2021/11/05 03:17:20;;;;;;;5.68;3.78;;;;;;;7.61;79.27;99891.03;1088431;54;20031;-81
2021/11/05 03:18:34;;;;;;;6.28;3.83;;;;;;;7.64;79.06;99887.25;1090564;46;20022;-82
2021/11/05 03:19:35;;;;;;;5.32;3.72;;;;;;;7.65;79.23;99895.09;1090474;46;20030;-79
2021/11/05 03:20:39;;;;;;;4.93;3.17;;;;;;;7.72;78.93;99886.63;1088101;54;20053;-80
2021/11/05 03:21:41;;;;;;;5.32;3.40;;;;;;;7.68;78.95;99877.19;1088414;54;20038;-80
2021/11/05 03:22:58;;;;;;;5.22;3.17;;;;;;;7.72;78.55;99889.28;1089184;46;20030;-80
2021/11/05 03:24:00;;;;;;;5.70;3.20;;;;;;;7.72;78.78;99889.28;1088175;54;20033;-79
2021/11/05 03:25:11;;;;;;;4.88;3.38;;;;;;;7.69;78.32;99897.50;1090046;46;20031;-79
2021/11/05 03:26:12;;;;;;;4.55;2.95;;;;;;;7.72;78.65;99889.28;1088036;54;20039;-78
2021/11/05 03:27:17;;;;;;;5.22;3.30;;;;;;;7.64;78.98;99901.41;1088227;54;20030;-79
2021/11/05 03:28:18;;;;;;;4.80;3.65;;;;;;;7.52;79.16;99905.09;1088244;54;20030;-79
2021/11/05 03:29:23;;;;;;;7.05;4.95;;;;;;;7.47;79.52;99904.63;1088328;54;20109;-79
2021/11/05 03:30:27;;;;;;;6.20;4.30;;;;;;;7.34;79.56;99900.34;1088232;54;20038;-78
2021/11/05 03:31:28;;;;;;;5.90;4.20;;;;;;;7.37;79.82;99909.03;1088279;54;20019;-79
2021/11/05 03:32:32;;;;;;;6.60;4.45;;;;;;;7.46;79.56;99909.13;1088366;54;20023;-81
2021/11/05 03:33:37;;;;;;;6.30;4.60;;;;;;;7.37;79.76;99912.53;1088544;46;20046;-81
2021/11/05 03:34:41;;;;;;;6.07;4.55;;;;;;;7.40;79.82;99909.63;1089341;46;20031;-79
2021/11/05 03:35:42;;;;;;;6.88;3.92;;;;;;;7.51;79.25;99913.22;1088282;54;20710;-79
2021/11/05 03:36:47;;;;;;;7.70;3.85;;;;;;;7.44;79.20;99908.38;1089793;46;20035;-78
2021/11/05 03:37:48;;;;;;;5.70;4.00;;;;;;;7.43;79.69;99908.53;1088172;54;20780;-79
2021/11/05 03:38:52;;;;;;;5.90;4.20;;;;;;;7.44;79.27;99916.38;1088180;54;20034;-79
2021/11/05 03:39:54;;;;;;;5.90;4.10;;;;;;;7.51;79.41;99922.03;1088189;54;20034;-80
2021/11/05 03:41:01;;;;;;;6.00;3.83;;;;;;;7.49;79.26;99922.16;1088209;54;20038;-80
2021/11/05 03:42:03;;;;;;;5.30;4.03;;;;;;;7.50;79.15;99923.00;1088844;46;20742;-79
2021/11/05 03:43:07;;;;;;;5.18;3.88;;;;;;;7.54;79.24;99919.13;1088163;54;20035;-79
2021/11/05 03:44:09;;;;;;;5.80;3.92;;;;;;;7.52;79.43;99923.72;1088083;54;20038;-80
2021/11/05 03:45:13;;;;;;;5.25;3.60;;;;;;;7.56;79.22;99922.47;1088086;54;20042;-80
2021/11/05 03:46:15;;;;;;;5.85;4.00;;;;;;;7.53;79.51;99921.88;1088124;54;20030;-80
2021/11/05 03:47:19;;;;;;;5.78;4.10;;;;;;;7.67;78.99;99926.06;1088196;54;20027;-80
2021/11/05 03:48:21;;;;;;;5.28;3.20;;;;;;;7.75;78.82;99924.44;1088092;54;20042;-79
2021/11/05 03:49:25;;;;;;;5.38;3.35;;;;;;;7.82;78.64;99924.78;1088026;54;20134;-80
2021/11/05 03:50:27;;;;;;;4.38;2.90;;;;;;;7.85;78.67;99931.66;1088182;54;20061;-79
2021/11/05 03:51:31;;;;;;;4.93;3.40;;;;;;;7.79;78.67;99933.00;1088052;54;20037;-80
2021/11/05 03:52:33;;;;;;;5.13;3.25;;;;;;;7.84;78.56;99930.78;1088096;54;20034;-80
2021/11/05 03:53:39;;;;;;;4.90;3.20;;;;;;;7.85;78.53;99937.81;1089524;39;20672;-80
2021/11/05 03:54:40;;;;;;;5.90;3.78;;;;;;;7.70;78.85;99928.47;1088159;54;20041;-80
2021/11/05 03:55:44;;;;;;;6.35;4.60;;;;;;;7.51;79.41;99945.97;1088080;54;20030;-79
2021/11/05 03:56:48;;;;;;;6.80;4.25;;;;;;;7.45;79.44;99943.81;1088122;54;20034;-80
2021/11/05 03:57:53;;;;;;;6.50;3.92;;;;;;;7.54;78.84;99944.88;1088007;54;20037;-78
2021/11/05 03:58:54;;;;;;;5.40;4.18;;;;;;;7.55;78.93;99946.56;1088127;54;20034;-79
2021/11/05 03:59:58;;;;;;;6.78;4.20;;;;;;;7.46;78.97;99945.53;1088012;54;20108;-79
2021/11/05 04:01:00;;;;;;;8.13;4.07;;;;;;;7.44;79.19;99956.25;1087956;54;21421;-79
2021/11/05 04:02:04;;;;;;;5.72;3.83;;;;;;;7.45;79.22;99957.97;1090017;46;20061;-79
2021/11/05 04:03:06;;;;;;;5.88;3.88;;;;;;;7.33;79.47;99959.81;1089083;46;20034;-79
2021/11/05 04:04:13;;;;;;;6.03;3.90;;;;;;;7.37;79.34;99954.25;1088069;54;20746;-80
2021/11/05 04:05:14;;;;;;;5.28;3.67;;;;;;;7.42;79.31;99954.72;1088076;54;20057;-80
2021/11/05 04:06:20;;;;;;;6.03;3.20;;;;;;;7.54;78.90;99961.69;1088025;54;20081;-78
2021/11/05 04:07:21;;;;;;;6.07;4.00;;;;;;;7.38;79.22;99961.25;1088449;46;20805;-80
2021/11/05 04:08:26;;;;;;;5.82;3.95;;;;;;;7.43;79.37;99969.69;1087978;54;20037;-79
2021/11/05 04:09:27;;;;;;;5.47;3.70;;;;;;;7.40;79.15;99960.16;1090053;39;20646;-80
2021/11/05 04:10:31;;;;;;;5.80;3.60;;;;;;;7.37;79.54;99967.56;1088023;54;20026;-77
2021/11/05 04:11:33;;;;;;;5.93;3.70;;;;;;;7.36;79.59;99961.38;1091719;39;20651;-78
2021/11/05 04:12:40;;;;;;;7.65;4.35;;;;;;;7.25;79.80;99962.28;1087782;54;20089;-79
2021/11/05 04:13:42;;;;;;;4.85;3.28;;;;;;;7.35;79.56;99962.34;1087991;54;20061;-80
2021/11/05 04:14:48;;;;;;;6.82;3.17;;;;;;;7.30;79.47;99965.38;1087980;54;20037;-79
2021/11/05 04:15:53;;;;;;;6.55;3.50;;;;;;;7.30;79.53;99969.88;1088004;54;20034;-78
2021/11/05 04:16:55;;;;;;;5.20;3.42;;;;;;;7.25;79.78;99966.72;1089638;46;20031;-79
2021/11/05 04:17:59;;;;;;;5.18;3.45;;;;;;;7.32;79.62;99975.91;1087970;54;20054;-79
2021/11/05 04:19:02;;;;;;;5.82;3.85;;;;;;;7.31;79.70;99972.38;1088075;54;20031;-79
2021/11/05 04:20:08;;;;;;;4.97;3.42;;;;;;;7.29;79.62;99978.81;1087938;54;20097;-79
2021/11/05 04:21:12;;;;;;;5.35;3.72;;;;;;;7.34;79.58;99976.59;1087506;54;20034;-79
2021/11/05 04:22:14;;;;;;;6.00;3.50;;;;;;;7.29;79.92;99984.97;1091392;39;20662;-80
2021/11/05 04:23:19;;;;;;;5.63;3.60;;;;;;;7.37;79.57;99980.84;1087773;54;20034;-80
2021/11/05 04:24:24;;;;;;;4.75;3.22;;;;;;;7.42;79.58;99981.31;1087929;54;20039;-79
2021/11/05 04:25:26;;;;;;;4.80;3.28;;;;;;;7.39;79.78;99986.88;1087838;54;20034;-81
2021/11/05 04:26:32;;;;;;;5.18;3.50;;;;;;;7.30;79.73;99984.00;1087771;54;20034;-80
2021/11/05 04:27:37;;;;;;;5.65;3.42;;;;;;;7.27;79.88;99986.06;1088004;54;20026;-81
2021/11/05 04:28:42;;;;;;;9.52;4.20;;;;;;;7.25;80.01;99986.19;1088748;46;20046;-79
2021/11/05 04:29:44;;;;;;;5.32;3.70;;;;;;;7.28;80.11;99993.91;1088146;54;20049;-81
2021/11/05 04:30:49;;;;;;;5.50;3.78;;;;;;;7.30;79.92;99988.47;1088025;54;20042;-79
2021/11/05 04:31:51;;;;;;;4.68;3.17;;;;;;;7.38;80.08;99991.34;1088046;54;20034;-80
2021/11/05 04:32:55;;;;;;;6.07;3.53;;;;;;;7.37;79.81;99994.16;1087836;54;20030;-78
2021/11/05 04:33:58;;;;;;;4.93;3.30;;;;;;;7.37;80.23;99996.81;1088015;54;20031;-79
2021/11/05 04:35:16;;;;;;;6.80;3.50;;;;;;;7.36;80.37;99997.78;1088158;54;20019;-79
2021/11/05 04:36:21;;;;;;;6.05;4.25;;;;;;;7.28;80.44;99993.91;1088071;54;20038;-79
2021/11/05 04:37:23;;;;;;;5.40;3.42;;;;;;;7.25;80.63;99994.19;1088039;54;20038;-78
2021/11/05 04:38:35;;;;;;;6.68;3.83;;;;;;;7.29;80.68;100000.91;1087886;54;20057;-79
2021/11/05 04:39:45;;;;;;;4.90;3.42;;;;;;;7.28;80.61;99996.56;1088103;54;20034;-80
2021/11/05 04:40:50;;;;;;;5.85;4.00;;;;;;;7.24;80.82;100004.91;1088152;54;20030;-78
2021/11/05 04:42:16;;;;;;;6.22;4.30;;;;;;;7.26;nan;99998.53;1088184;54;20030;-79
2021/11/05 04:43:21;;;;;;;5.97;3.80;;;;;;;7.23;80.87;100001.44;1088248;54;20034;-81
2021/11/05 04:44:26;;;;;;;6.00;3.80;;;;;;;7.27;nan;100002.03;1087993;54;20030;-80
2021/11/05 04:45:28;;;;;;;6.45;4.13;;;;;;;7.31;80.84;100001.66;1093019;46;20035;-79
2021/11/05 04:46:32;;;;;;;5.53;4.22;;;;;;;7.24;81.08;100003.13;1088097;54;20026;-81
2021/11/05 04:47:34;;;;;;;5.80;3.95;;;;;;;7.39;80.83;99997.50;1091658;39;20693;-79
2021/11/05 04:48:38;;;;;;;5.85;4.55;;;;;;;7.22;80.95;100010.38;1087909;54;20036;-79
2021/11/05 04:49:40;;;;;;;7.22;4.57;;;;;;;7.23;80.84;100003.22;1088237;46;20038;-78
2021/11/05 04:50:45;;;;;;;5.45;4.25;;;;;;;7.37;80.64;100004.78;1088131;54;20738;-80
2021/11/05 04:51:49;;;;;;;5.63;3.95;;;;;;;7.46;80.34;100002.22;1088091;54;20031;-79
2021/11/05 04:52:51;;;;;;;5.60;4.20;;;;;;;7.36;80.44;100009.25;1087907;54;20022;-79
2021/11/05 04:53:55;;;;;;;5.55;3.88;;;;;;;7.42;80.37;100006.06;1089992;39;20716;-80
2021/11/05 12:06:13;;;;;;;9.02;6.93;;;;;;;9.71;71.65;100548.03;1090012;46;20019;-83
2021/11/05 12:07:15;;;;;;;9.50;7.53;;;;;;;9.77;71.86;100543.03;1088535;54;20034;-80
2021/11/05 12:08:33;;;;;;;8.73;6.80;;;;;;;10.03;71.01;100550.69;1088430;54;20061;-82
2021/11/05 12:09:55;;;;;;;8.80;6.90;;;;;;;9.94;70.20;100541.63;1088422;54;20022;-79
2021/11/05 12:11:32;;;;;;;11.70;8.18;;;;;;;9.95;69.97;100550.47;1088514;54;20034;-82
2021/11/05 12:12:34;;;;;;;9.95;7.25;;;;;;;10.03;70.92;100550.69;1094734;46;20017;-81
2021/11/05 12:15:25;;;;;;;9.20;7.57;;;;;;;10.26;70.53;100551.41;1088433;54;20711;-80
2021/11/05 12:16:32;;;;;;;8.40;6.50;;;;;;;10.42;69.93;100548.31;1088516;54;20042;-79
2021/11/05 12:18:12;;;;;;;8.48;6.88;;;;;;;10.42;69.24;100540.28;1088438;54;20765;-81
2021/11/05 12:21:32;;;;;;;12.55;9.13;;;;;;;10.14;68.53;100558.66;1088400;54;20236;-82
2021/11/05 12:22:41;;;;;;;9.18;7.38;;;;;;;10.14;69.44;100553.31;1089796;39;20736;-81
2021/11/05 12:23:42;;;;;;;9.15;7.70;;;;;;;10.32;69.34;100550.03;1088348;54;20781;-82
2021/11/05 12:25:19;;;;;;;9.38;7.85;;;;;;;10.49;68.47;100548.63;1088415;54;20888;-82
2021/11/05 12:26:39;;;;;;;9.35;7.40;;;;;;;10.64;68.24;100546.47;1088416;54;20018;-80
2021/11/05 12:38:55;;;;;;;12.02;10.38;;;;;;;10.60;68.49;100553.06;1087679;54;20952;-82
2021/11/05 12:40:27;;;;;;;12.13;10.05;;;;;;;10.66;68.00;100547.19;1088370;54;20026;-84
2021/11/05 12:41:31;;;;;;;11.13;9.45;;;;;;;10.70;68.54;100553.13;1088364;54;20030;-83
2021/11/05 12:43:19;;;;;;;12.65;9.57;;;;;;;10.53;67.30;100554.56;1088407;54;20030;-83
2021/11/05 12:44:24;;;;;;;12.68;10.40;;;;;;;10.67;68.19;100554.22;1088406;54;20039;-81
2021/11/05 12:46:08;;;;;;;16.20;10.75;;;;;;;10.62;66.79;100551.09;1088391;54;20043;-82
2021/11/05 12:47:12;;;;;;;12.85;10.60;;;;;;;10.65;67.93;100566.03;1088297;54;20055;-82
2021/11/05 12:51:52;;;;;;;12.77;9.80;;;;;;;10.82;67.14;100564.56;1088389;54;20049;-83
2021/11/05 12:52:56;;;;;;;13.43;10.52;;;;;;;10.74;67.56;100571.44;1088287;54;20062;-82
2021/11/05 12:54:32;;;;;;;14.60;11.07;;;;;;;10.86;67.01;100569.50;1088356;54;20027;-81
2021/11/05 12:55:39;;;;;;;13.55;11.13;;;;;;;10.84;67.04;100563.44;1088384;54;20034;-83
2021/11/05 12:56:45;;;;;;;15.90;12.85;;;;;;;10.61;67.15;100570.78;1088342;54;20034;-82
2021/11/05 12:57:48;;;;;;;15.10;12.40;;;;;;;10.68;67.39;100563.09;1088336;54;20035;-80
2021/11/05 13:00:43;;;;;;;14.30;12.02;;;;;;;10.37;67.96;100577.28;1089343;39;20583;-84
2021/11/05 13:02:18;;;;;;;14.13;12.18;;;;;;;10.41;67.54;100581.34;1088371;54;20045;-82
2021/11/05 13:03:20;;;;;;;17.83;13.50;;;;;;;10.32;68.11;100583.94;1088306;54;20770;-83
2021/11/05 13:04:27;;;;;;;15.07;13.40;;;;;;;10.26;68.39;100582.63;1088382;54;20030;-81
2021/11/05 13:06:11;;;;;;;15.65;12.23;;;;;;;10.13;68.70;100583.66;1088439;54;20038;-82
2021/11/05 13:07:16;;;;;;;15.02;12.45;;;;;;;10.13;68.66;100589.00;1088349;54;20087;-83
2021/11/05 13:08:59;;;;;;;15.55;12.35;;;;;;;10.14;68.82;100582.69;1088345;54;20023;-83
2021/11/05 13:10:04;;;;;;;13.60;11.98;;;;;;;10.29;68.82;100587.75;1088429;54;20035;-81
2021/11/05 13:11:10;;;;;;;15.13;11.05;;;;;;;10.12;67.88;100589.97;1088356;54;20055;-81
2021/11/05 13:12:16;;;;;;;12.85;10.02;;;;;;;10.24;68.21;100592.59;1088281;54;20019;-82
2021/11/05 13:13:18;;;;;;;14.80;10.57;;;;;;;10.34;67.72;100598.03;1088410;54;20092;-82
2021/11/05 13:14:53;;;;;;;15.25;11.02;;;;;;;10.35;67.59;100597.03;1088389;54;20026;-81
2021/11/05 13:15:58;;;;;;;14.00;11.25;;;;;;;10.18;67.23;100593.13;1097114;39;20687;-81
2021/11/05 13:17:24;;;;;;;17.35;13.13;;;;;;;10.10;66.64;100594.63;1088342;54;20063;-82
2021/11/05 13:18:25;;;;;;;15.82;11.85;;;;;;;10.07;67.41;100592.19;1088355;54;20050;-83
2021/11/05 13:19:35;;;;;;;14.68;12.43;;;;;;;10.08;67.35;100595.72;1088379;54;20710;-83
2021/11/05 13:20:42;;;;;;;17.77;13.43;;;;;;;10.06;67.37;100595.00;1096625;39;20623;-82
2021/11/05 13:21:44;;;;;;;13.60;11.50;;;;;;;10.24;67.37;100596.16;1091490;39;20740;-83
2021/11/05 13:23:04;;;;;;;15.57;12.55;;;;;;;10.14;67.19;100590.72;1088220;54;20035;-83
2021/11/05 13:24:06;;;;;;;13.70;11.57;;;;;;;10.35;67.08;100597.03;1088286;54;20062;-82
2021/11/05 13:25:42;;;;;;;13.82;10.68;;;;;;;10.47;66.59;100592.53;1088338;54;20731;-83
2021/11/05 13:26:47;;;;;;;14.18;11.07;;;;;;;10.55;66.89;100593.53;1088376;54;20045;-82
2021/11/05 13:28:22;;;;;;;12.70;10.25;;;;;;;10.55;66.40;100593.53;1088200;54;20034;-82
2021/11/05 13:29:26;;;;;;;13.38;10.48;;;;;;;10.56;66.75;100600.59;1088423;54;20053;-83
2021/11/05 13:31:08;;;;;;;13.43;10.32;;;;;;;10.58;65.90;100598.66;1088359;54;20018;-82
2021/11/05 13:32:16;;;;;;;12.10;9.88;;;;;;;10.59;66.42;100604.81;1088283;54;20047;-80
2021/11/05 13:33:58;;;;;;;13.95;11.15;;;;;;;10.64;66.53;100607.09;1088379;54;20042;-82
2021/11/05 13:35:00;;;;;;;15.40;11.73;;;;;;;10.55;66.62;100608.75;1088318;54;20034;-82
2021/11/05 13:37:51;;;;;;;13.07;10.40;;;;;;;10.72;66.23;100605.47;1088304;54;20034;-83
2021/11/05 13:38:55;;;;;;;14.02;11.18;;;;;;;10.81;66.24;100608.34;1087952;54;20035;-81
2021/11/05 13:39:57;;;;;;;16.70;12.05;;;;;;;10.83;66.20;100606.38;1088365;54;20029;-80
2021/11/05 13:42:46;;;;;;;12.00;10.27;;;;;;;10.86;65.80;100614.97;1088278;54;20064;-83
2021/11/05 13:43:50;;;;;;;15.90;12.90;;;;;;;10.84;65.91;100608.09;1088253;54;20055;-85
2021/11/05 13:46:59;;;;;;;13.38;11.75;;;;;;;10.85;65.03;100613.28;1088270;54;20006;-82
2021/11/05 13:48:01;;;;;;;13.88;11.60;;;;;;;10.93;65.02;100620.66;1088289;54;20843;-81
2021/11/05 13:51:25;;;;;;;12.85;10.82;;;;;;;10.95;64.83;100621.38;1088297;54;20003;-84
2021/11/05 13:52:27;;;;;;;13.68;12.05;;;;;;;10.88;65.17;100620.19;1088256;54;20098;-82
2021/11/05 13:53:49;;;;;;;14.75;11.70;;;;;;;10.82;64.06;100621.56;1088284;54;20011;-83
2021/11/05 13:54:50;;;;;;;15.70;14.00;;;;;;;10.60;65.18;100628.78;1088320;54;20030;-81
2021/11/05 13:56:27;;;;;;;15.25;13.20;;;;;;;10.44;64.75;100623.88;1088360;54;20031;-80
2021/11/05 13:57:29;;;;;;;16.60;13.93;;;;;;;10.56;65.28;100615.81;1088333;54;20015;-83
2021/11/05 13:59:00;;;;;;;16.52;14.45;;;;;;;10.69;64.18;100611.09;1088230;54;20066;-82
2021/11/05 14:00:03;;;;;;;17.65;14.95;;;;;;;10.34;65.14;100622.94;1088318;54;20099;-81
2021/11/05 14:04:31;;;;;;;19.17;16.08;;;;;;;10.41;65.70;100626.81;1089272;39;20626;-82
2021/11/05 14:07:36;;;;;;;18.10;14.80;;;;;;;10.49;65.19;100630.63;1089096;39;20698;-81
2021/11/05 14:08:49;;;;;;;15.48;13.23;;;;;;;10.63;65.24;100626.81;1088299;54;20037;-82
2021/11/05 14:10:11;;;;;;;14.70;12.52;;;;;;;10.69;64.65;100627.13;1088323;54;20049;-83
2021/11/05 14:11:15;;;;;;;15.07;12.65;;;;;;;10.70;65.25;100638.69;1088295;54;20062;-82
2021/11/05 14:12:39;;;;;;;14.93;12.98;;;;;;;10.80;64.82;100636.06;1088178;54;20033;-82
2021/11/05 14:13:54;;;;;;;16.33;12.25;;;;;;;10.78;64.93;100638.88;1088224;54;20031;-81
2021/11/05 14:15:03;;;;;;;15.88;12.95;;;;;;;10.81;65.21;100638.63;1088271;54;20023;-81
2021/11/05 14:16:11;;;;;;;15.23;13.02;;;;;;;10.74;65.19;100640.97;1088255;54;20034;-81
2021/11/05 14:17:18;;;;;;;16.08;13.52;;;;;;;10.69;65.21;100642.34;1088202;54;20038;-82
2021/11/05 14:18:24;;;;;;;18.00;15.00;;;;;;;10.63;65.26;100637.53;1088263;54;20051;-85
2021/11/05 14:19:28;;;;;;;21.80;14.10;;;;;;;10.68;64.99;100638.78;1088206;54;20026;-81